sensor_id;sensor_type;location;lat;lon;timestamp;P1;durP1;ratioP1;P2;durP2;ratioP2
22191;SDS011;11261;52.456;10.850;2023-11-18T00:00:32;4.22;;;2.90;;
22191;SDS011;11261;52.456;10.850;2023-11-18T00:03:01;3.55;;;2.45;;
22191;SDS011;11261;52.456;10.850;2023-11-18T00:05:30;6.85;;;2.53;;
22191;SDS011;11261;52.456;10.850;2023-11-18T00:07:58;6.53;;;3.25;;
22191;SDS011;11261;52.456;10.850;2023-11-18T00:10:28;5.15;;;2.90;;
22191;SDS011;11261;52.456;10.850;2023-11-18T00:12:57;4.72;;;3.00;;
22191;SDS011;11261;52.456;10.850;2023-11-18T00:15:28;4.50;;;2.97;;
22191;SDS011;11261;52.456;10.850;2023-11-18T00:17:56;5.18;;;3.20;;
22191;SDS011;11261;52.456;10.850;2023-11-18T00:20:25;5.35;;;3.00;;
22191;SDS011;11261;52.456;10.850;2023-11-18T00:22:53;6.43;;;2.50;;
22191;SDS011;11261;52.456;10.850;2023-11-18T00:25:21;6.88;;;2.85;;
22191;SDS011;11261;52.456;10.850;2023-11-18T00:27:50;6.85;;;2.95;;
22191;SDS011;11261;52.456;10.850;2023-11-18T00:30:20;6.20;;;2.88;;
22191;SDS011;11261;52.456;10.850;2023-11-18T00:32:48;9.45;;;3.17;;
22191;SDS011;11261;52.456;10.850;2023-11-18T00:35:17;4.55;;;2.88;;
22191;SDS011;11261;52.456;10.850;2023-11-18T00:37:45;3.63;;;2.55;;
22191;SDS011;11261;52.456;10.850;2023-11-18T00:40:14;8.75;;;2.78;;
22191;SDS011;11261;52.456;10.850;2023-11-18T00:42:44;5.40;;;2.90;;
22191;SDS011;11261;52.456;10.850;2023-11-18T00:45:13;5.47;;;2.63;;
22191;SDS011;11261;52.456;10.850;2023-11-18T00:47:43;4.35;;;3.13;;
22191;SDS011;11261;52.456;10.850;2023-11-18T00:50:12;4.10;;;2.42;;
22191;SDS011;11261;52.456;10.850;2023-11-18T00:52:40;4.93;;;2.97;;
22191;SDS011;11261;52.456;10.850;2023-11-18T00:55:09;4.00;;;2.70;;
22191;SDS011;11261;52.456;10.850;2023-11-18T00:57:37;4.28;;;2.63;;
22191;SDS011;11261;52.456;10.850;2023-11-18T01:00:07;5.45;;;2.83;;
22191;SDS011;11261;52.456;10.850;2023-11-18T01:02:40;6.45;;;2.85;;
22191;SDS011;11261;52.456;10.850;2023-11-18T01:05:11;3.42;;;2.35;;
22191;SDS011;11261;52.456;10.850;2023-11-18T01:07:40;3.58;;;2.55;;
22191;SDS011;11261;52.456;10.850;2023-11-18T01:10:09;5.65;;;2.75;;
22191;SDS011;11261;52.456;10.850;2023-11-18T01:12:40;4.32;;;2.92;;
22191;SDS011;11261;52.456;10.850;2023-11-18T01:15:10;5.55;;;3.10;;
22191;SDS011;11261;52.456;10.850;2023-11-18T01:17:42;5.63;;;2.60;;
22191;SDS011;11261;52.456;10.850;2023-11-18T01:20:11;4.88;;;2.78;;
22191;SDS011;11261;52.456;10.850;2023-11-18T01:22:40;7.00;;;3.35;;
22191;SDS011;11261;52.456;10.850;2023-11-18T01:25:12;5.03;;;2.92;;
22191;SDS011;11261;52.456;10.850;2023-11-18T01:27:40;4.35;;;2.85;;
22191;SDS011;11261;52.456;10.850;2023-11-18T01:30:09;4.93;;;3.05;;
22191;SDS011;11261;52.456;10.850;2023-11-18T01:32:39;5.03;;;2.90;;
22191;SDS011;11261;52.456;10.850;2023-11-18T01:35:09;4.60;;;2.67;;
22191;SDS011;11261;52.456;10.850;2023-11-18T01:37:39;5.10;;;3.03;;
22191;SDS011;11261;52.456;10.850;2023-11-18T01:40:07;4.38;;;2.92;;
22191;SDS011;11261;52.456;10.850;2023-11-18T01:42:38;6.10;;;3.53;;
22191;SDS011;11261;52.456;10.850;2023-11-18T01:45:10;6.07;;;2.60;;
22191;SDS011;11261;52.456;10.850;2023-11-18T01:47:39;5.93;;;3.80;;
22191;SDS011;11261;52.456;10.850;2023-11-18T01:50:10;5.93;;;3.40;;
22191;SDS011;11261;52.456;10.850;2023-11-18T01:52:41;5.65;;;3.05;;
22191;SDS011;11261;52.456;10.850;2023-11-18T01:55:12;6.22;;;3.47;;
22191;SDS011;11261;52.456;10.850;2023-11-18T01:57:41;7.28;;;3.90;;
22191;SDS011;11261;52.456;10.850;2023-11-18T02:00:12;4.80;;;3.03;;
22191;SDS011;11261;52.456;10.850;2023-11-18T02:02:44;6.63;;;3.80;;
22191;SDS011;11261;52.456;10.850;2023-11-18T02:05:15;6.75;;;3.65;;
22191;SDS011;11261;52.456;10.850;2023-11-18T02:07:44;5.55;;;3.17;;
22191;SDS011;11261;52.456;10.850;2023-11-18T02:10:13;5.68;;;3.22;;
22191;SDS011;11261;52.456;10.850;2023-11-18T02:12:43;4.82;;;3.40;;
22191;SDS011;11261;52.456;10.850;2023-11-18T02:15:20;4.97;;;2.88;;
22191;SDS011;11261;52.456;10.850;2023-11-18T02:17:50;6.32;;;2.97;;
22191;SDS011;11261;52.456;10.850;2023-11-18T02:20:23;4.65;;;3.33;;
22191;SDS011;11261;52.456;10.850;2023-11-18T02:22:52;6.18;;;3.53;;
22191;SDS011;11261;52.456;10.850;2023-11-18T02:25:21;6.80;;;3.50;;
22191;SDS011;11261;52.456;10.850;2023-11-18T02:27:57;6.05;;;3.75;;
22191;SDS011;11261;52.456;10.850;2023-11-18T02:30:26;7.07;;;3.97;;
22191;SDS011;11261;52.456;10.850;2023-11-18T02:32:58;8.25;;;4.07;;
22191;SDS011;11261;52.456;10.850;2023-11-18T02:35:33;6.65;;;3.65;;
22191;SDS011;11261;52.456;10.850;2023-11-18T02:38:05;6.43;;;3.50;;
22191;SDS011;11261;52.456;10.850;2023-11-18T02:40:37;7.95;;;4.30;;
22191;SDS011;11261;52.456;10.850;2023-11-18T02:43:12;6.20;;;3.72;;
22191;SDS011;11261;52.456;10.850;2023-11-18T02:45:40;5.78;;;3.30;;
22191;SDS011;11261;52.456;10.850;2023-11-18T02:48:10;6.53;;;3.65;;
22191;SDS011;11261;52.456;10.850;2023-11-18T02:50:39;7.93;;;3.50;;
22191;SDS011;11261;52.456;10.850;2023-11-18T02:53:08;7.88;;;4.75;;
22191;SDS011;11261;52.456;10.850;2023-11-18T02:55:37;7.20;;;4.20;;
22191;SDS011;11261;52.456;10.850;2023-11-18T02:58:07;8.07;;;4.35;;
22191;SDS011;11261;52.456;10.850;2023-11-18T03:00:37;5.45;;;3.92;;
22191;SDS011;11261;52.456;10.850;2023-11-18T03:03:05;6.63;;;3.80;;
22191;SDS011;11261;52.456;10.850;2023-11-18T03:05:34;9.45;;;3.90;;
22191;SDS011;11261;52.456;10.850;2023-11-18T03:08:03;7.40;;;4.20;;
22191;SDS011;11261;52.456;10.850;2023-11-18T03:10:32;5.72;;;3.80;;
22191;SDS011;11261;52.456;10.850;2023-11-18T03:13:01;7.72;;;4.18;;
22191;SDS011;11261;52.456;10.850;2023-11-18T03:15:30;6.63;;;3.97;;
22191;SDS011;11261;52.456;10.850;2023-11-18T03:18:00;7.25;;;4.05;;
22191;SDS011;11261;52.456;10.850;2023-11-18T03:20:28;6.47;;;3.88;;
22191;SDS011;11261;52.456;10.850;2023-11-18T03:22:58;7.97;;;4.72;;
22191;SDS011;11261;52.456;10.850;2023-11-18T03:25:28;6.60;;;3.95;;
22191;SDS011;11261;52.456;10.850;2023-11-18T03:27:57;6.80;;;3.75;;
22191;SDS011;11261;52.456;10.850;2023-11-18T03:30:25;7.10;;;3.58;;
22191;SDS011;11261;52.456;10.850;2023-11-18T03:32:55;5.88;;;3.67;;
22191;SDS011;11261;52.456;10.850;2023-11-18T03:35:25;6.40;;;3.42;;
22191;SDS011;11261;52.456;10.850;2023-11-18T03:37:54;7.07;;;3.75;;
22191;SDS011;11261;52.456;10.850;2023-11-18T03:40:22;5.25;;;3.45;;
22191;SDS011;11261;52.456;10.850;2023-11-18T03:42:51;6.82;;;4.22;;
22191;SDS011;11261;52.456;10.850;2023-11-18T03:45:20;7.65;;;3.78;;
22191;SDS011;11261;52.456;10.850;2023-11-18T03:47:49;7.53;;;3.75;;
22191;SDS011;11261;52.456;10.850;2023-11-18T03:50:18;5.75;;;4.05;;
22191;SDS011;11261;52.456;10.850;2023-11-18T03:52:48;6.45;;;3.95;;
22191;SDS011;11261;52.456;10.850;2023-11-18T03:55:16;9.55;;;4.15;;
22191;SDS011;11261;52.456;10.850;2023-11-18T03:57:45;7.22;;;3.90;;
22191;SDS011;11261;52.456;10.850;2023-11-18T04:00:15;6.18;;;3.90;;
22191;SDS011;11261;52.456;10.850;2023-11-18T04:02:44;7.28;;;3.95;;
22191;SDS011;11261;52.456;10.850;2023-11-18T04:05:12;8.02;;;4.47;;
22191;SDS011;11261;52.456;10.850;2023-11-18T04:07:41;6.13;;;3.60;;
22191;SDS011;11261;52.456;10.850;2023-11-18T04:10:10;6.72;;;4.10;;
22191;SDS011;11261;52.456;10.850;2023-11-18T04:12:39;8.00;;;3.88;;
22191;SDS011;11261;52.456;10.850;2023-11-18T04:15:08;8.00;;;3.85;;
22191;SDS011;11261;52.456;10.850;2023-11-18T04:17:38;9.40;;;4.65;;
22191;SDS011;11261;52.456;10.850;2023-11-18T04:20:09;6.00;;;3.95;;
22191;SDS011;11261;52.456;10.850;2023-11-18T04:22:39;8.88;;;4.15;;
22191;SDS011;11261;52.456;10.850;2023-11-18T04:25:09;9.93;;;4.00;;
22191;SDS011;11261;52.456;10.850;2023-11-18T04:27:39;7.32;;;3.65;;
22191;SDS011;11261;52.456;10.850;2023-11-18T04:30:12;7.82;;;3.92;;
22191;SDS011;11261;52.456;10.850;2023-11-18T04:32:41;7.72;;;4.22;;
22191;SDS011;11261;52.456;10.850;2023-11-18T04:35:10;8.90;;;4.47;;
22191;SDS011;11261;52.456;10.850;2023-11-18T04:37:39;7.03;;;4.38;;
22191;SDS011;11261;52.456;10.850;2023-11-18T04:40:11;5.93;;;3.40;;
22191;SDS011;11261;52.456;10.850;2023-11-18T04:42:40;7.63;;;3.42;;
22191;SDS011;11261;52.456;10.850;2023-11-18T04:45:08;6.65;;;3.83;;
22191;SDS011;11261;52.456;10.850;2023-11-18T04:47:37;6.07;;;3.47;;
22191;SDS011;11261;52.456;10.850;2023-11-18T04:50:06;5.57;;;3.63;;
22191;SDS011;11261;52.456;10.850;2023-11-18T04:52:36;6.75;;;3.90;;
22191;SDS011;11261;52.456;10.850;2023-11-18T04:55:04;6.78;;;3.28;;
22191;SDS011;11261;52.456;10.850;2023-11-18T04:57:34;8.88;;;3.65;;
22191;SDS011;11261;52.456;10.850;2023-11-18T05:00:06;5.90;;;3.25;;
22191;SDS011;11261;52.456;10.850;2023-11-18T05:02:38;8.45;;;3.50;;
22191;SDS011;11261;52.456;10.850;2023-11-18T05:05:07;8.38;;;3.95;;
22191;SDS011;11261;52.456;10.850;2023-11-18T05:07:36;5.90;;;3.53;;
22191;SDS011;11261;52.456;10.850;2023-11-18T05:10:05;7.07;;;3.63;;
22191;SDS011;11261;52.456;10.850;2023-11-18T05:12:37;9.70;;;4.10;;
22191;SDS011;11261;52.456;10.850;2023-11-18T05:15:06;8.13;;;3.60;;
22191;SDS011;11261;52.456;10.850;2023-11-18T05:17:35;6.43;;;3.50;;
22191;SDS011;11261;52.456;10.850;2023-11-18T05:20:06;5.85;;;3.15;;
22191;SDS011;11261;52.456;10.850;2023-11-18T05:22:36;7.20;;;3.90;;
22191;SDS011;11261;52.456;10.850;2023-11-18T05:25:04;6.00;;;3.25;;
22191;SDS011;11261;52.456;10.850;2023-11-18T05:27:34;4.43;;;2.78;;
22191;SDS011;11261;52.456;10.850;2023-11-18T05:30:04;5.45;;;3.45;;
22191;SDS011;11261;52.456;10.850;2023-11-18T05:32:34;6.18;;;3.08;;
22191;SDS011;11261;52.456;10.850;2023-11-18T05:35:03;8.18;;;3.45;;
22191;SDS011;11261;52.456;10.850;2023-11-18T05:37:33;6.88;;;3.58;;
22191;SDS011;11261;52.456;10.850;2023-11-18T05:40:05;5.18;;;2.90;;
22191;SDS011;11261;52.456;10.850;2023-11-18T05:42:34;6.82;;;3.85;;
22191;SDS011;11261;52.456;10.850;2023-11-18T05:45:07;4.82;;;3.13;;
22191;SDS011;11261;52.456;10.850;2023-11-18T05:47:44;5.22;;;2.90;;
22191;SDS011;11261;52.456;10.850;2023-11-18T05:50:13;8.68;;;4.20;;
22191;SDS011;11261;52.456;10.850;2023-11-18T05:52:42;7.05;;;3.47;;
22191;SDS011;11261;52.456;10.850;2023-11-18T05:55:11;7.10;;;3.55;;
22191;SDS011;11261;52.456;10.850;2023-11-18T05:57:39;7.38;;;3.92;;
22191;SDS011;11261;52.456;10.850;2023-11-18T06:00:13;6.22;;;3.33;;
22191;SDS011;11261;52.456;10.850;2023-11-18T06:02:53;6.50;;;3.45;;
22191;SDS011;11261;52.456;10.850;2023-11-18T06:05:22;4.50;;;3.00;;
22191;SDS011;11261;52.456;10.850;2023-11-18T06:07:52;8.40;;;3.00;;
22191;SDS011;11261;52.456;10.850;2023-11-18T06:10:21;5.93;;;3.08;;
22191;SDS011;11261;52.456;10.850;2023-11-18T06:12:49;4.78;;;3.00;;
22191;SDS011;11261;52.456;10.850;2023-11-18T06:15:20;7.80;;;3.83;;
22191;SDS011;11261;52.456;10.850;2023-11-18T06:17:49;5.55;;;3.63;;
22191;SDS011;11261;52.456;10.850;2023-11-18T06:20:18;6.53;;;3.55;;
22191;SDS011;11261;52.456;10.850;2023-11-18T06:22:46;5.90;;;3.40;;
22191;SDS011;11261;52.456;10.850;2023-11-18T06:25:15;6.53;;;3.60;;
22191;SDS011;11261;52.456;10.850;2023-11-18T06:27:44;7.65;;;3.53;;
22191;SDS011;11261;52.456;10.850;2023-11-18T06:30:14;7.30;;;3.70;;
22191;SDS011;11261;52.456;10.850;2023-11-18T06:32:44;6.63;;;3.80;;
22191;SDS011;11261;52.456;10.850;2023-11-18T06:35:14;5.28;;;3.50;;
22191;SDS011;11261;52.456;10.850;2023-11-18T06:37:42;5.75;;;3.38;;
22191;SDS011;11261;52.456;10.850;2023-11-18T06:40:12;6.82;;;3.58;;
22191;SDS011;11261;52.456;10.850;2023-11-18T06:43:02;5.97;;;3.65;;
22191;SDS011;11261;52.456;10.850;2023-11-18T06:45:37;6.97;;;3.40;;
22191;SDS011;11261;52.456;10.850;2023-11-18T06:48:12;5.38;;;3.40;;
22191;SDS011;11261;52.456;10.850;2023-11-18T06:50:41;7.93;;;3.95;;
22191;SDS011;11261;52.456;10.850;2023-11-18T06:53:11;6.13;;;3.67;;
22191;SDS011;11261;52.456;10.850;2023-11-18T06:55:41;5.13;;;3.10;;
22191;SDS011;11261;52.456;10.850;2023-11-18T06:58:10;11.70;;;4.57;;
22191;SDS011;11261;52.456;10.850;2023-11-18T07:00:39;9.20;;;4.72;;
22191;SDS011;11261;52.456;10.850;2023-11-18T07:03:08;9.10;;;3.90;;
22191;SDS011;11261;52.456;10.850;2023-11-18T07:05:37;9.30;;;5.30;;
22191;SDS011;11261;52.456;10.850;2023-11-18T07:08:06;15.30;;;4.82;;
22191;SDS011;11261;52.456;10.850;2023-11-18T07:10:35;8.93;;;5.30;;
22191;SDS011;11261;52.456;10.850;2023-11-18T07:13:04;12.85;;;5.80;;
22191;SDS011;11261;52.456;10.850;2023-11-18T07:15:35;11.02;;;5.63;;
22191;SDS011;11261;52.456;10.850;2023-11-18T07:18:03;17.27;;;6.18;;
22191;SDS011;11261;52.456;10.850;2023-11-18T07:20:33;12.85;;;6.28;;
22191;SDS011;11261;52.456;10.850;2023-11-18T07:23:02;13.18;;;6.47;;
22191;SDS011;11261;52.456;10.850;2023-11-18T07:25:31;11.55;;;6.15;;
22191;SDS011;11261;52.456;10.850;2023-11-18T07:28:00;17.15;;;7.30;;
22191;SDS011;11261;52.456;10.850;2023-11-18T07:30:29;13.63;;;6.75;;
22191;SDS011;11261;52.456;10.850;2023-11-18T07:32:58;12.57;;;6.85;;
22191;SDS011;11261;52.456;10.850;2023-11-18T07:35:27;23.42;;;7.60;;
22191;SDS011;11261;52.456;10.850;2023-11-18T07:37:56;14.60;;;6.55;;
22191;SDS011;11261;52.456;10.850;2023-11-18T07:40:26;18.02;;;6.30;;
22191;SDS011;11261;52.456;10.850;2023-11-18T07:42:55;16.60;;;7.00;;
22191;SDS011;11261;52.456;10.850;2023-11-18T07:45:28;14.18;;;5.70;;
22191;SDS011;11261;52.456;10.850;2023-11-18T07:48:04;9.85;;;5.03;;
22191;SDS011;11261;52.456;10.850;2023-11-18T07:50:34;10.32;;;4.95;;
22191;SDS011;11261;52.456;10.850;2023-11-18T07:53:02;9.10;;;5.15;;
22191;SDS011;11261;52.456;10.850;2023-11-18T07:55:34;11.15;;;5.18;;
22191;SDS011;11261;52.456;10.850;2023-11-18T07:58:06;7.78;;;4.82;;
22191;SDS011;11261;52.456;10.850;2023-11-18T08:00:37;8.60;;;5.05;;
22191;SDS011;11261;52.456;10.850;2023-11-18T08:03:06;8.25;;;4.95;;
22191;SDS011;11261;52.456;10.850;2023-11-18T08:05:38;7.57;;;4.43;;
22191;SDS011;11261;52.456;10.850;2023-11-18T08:08:07;6.85;;;4.28;;
22191;SDS011;11261;52.456;10.850;2023-11-18T08:10:39;8.75;;;4.95;;
22191;SDS011;11261;52.456;10.850;2023-11-18T08:13:10;18.88;;;8.80;;
22191;SDS011;11261;52.456;10.850;2023-11-18T08:15:40;22.00;;;10.13;;
22191;SDS011;11261;52.456;10.850;2023-11-18T08:18:09;18.60;;;8.13;;
22191;SDS011;11261;52.456;10.850;2023-11-18T08:20:37;11.88;;;7.00;;
22191;SDS011;11261;52.456;10.850;2023-11-18T08:23:06;15.27;;;7.47;;
22191;SDS011;11261;52.456;10.850;2023-11-18T08:25:35;12.45;;;6.97;;
22191;SDS011;11261;52.456;10.850;2023-11-18T08:28:07;10.48;;;5.78;;
22191;SDS011;11261;52.456;10.850;2023-11-18T08:30:37;9.80;;;5.72;;
22191;SDS011;11261;52.456;10.850;2023-11-18T08:33:06;7.28;;;4.78;;
22191;SDS011;11261;52.456;10.850;2023-11-18T08:35:35;7.70;;;4.65;;
22191;SDS011;11261;52.456;10.850;2023-11-18T08:38:04;7.43;;;4.43;;
22191;SDS011;11261;52.456;10.850;2023-11-18T08:40:34;8.60;;;5.22;;
22191;SDS011;11261;52.456;10.850;2023-11-18T08:43:02;8.07;;;4.97;;
22191;SDS011;11261;52.456;10.850;2023-11-18T08:45:35;10.50;;;5.85;;
22191;SDS011;11261;52.456;10.850;2023-11-18T08:48:04;9.70;;;5.43;;
22191;SDS011;11261;52.456;10.850;2023-11-18T08:50:35;17.85;;;5.78;;
22191;SDS011;11261;52.456;10.850;2023-11-18T08:53:06;7.05;;;4.53;;
22191;SDS011;11261;52.456;10.850;2023-11-18T08:55:37;8.77;;;4.97;;
22191;SDS011;11261;52.456;10.850;2023-11-18T08:58:17;6.60;;;4.38;;
22191;SDS011;11261;52.456;10.850;2023-11-18T09:00:57;7.13;;;3.85;;
22191;SDS011;11261;52.456;10.850;2023-11-18T09:03:33;6.07;;;3.88;;
22191;SDS011;11261;52.456;10.850;2023-11-18T09:06:10;16.13;;;6.85;;
22191;SDS011;11261;52.456;10.850;2023-11-18T09:08:45;7.55;;;4.78;;
22191;SDS011;11261;52.456;10.850;2023-11-18T09:11:20;6.85;;;4.07;;
22191;SDS011;11261;52.456;10.850;2023-11-18T09:13:50;8.43;;;4.63;;
22191;SDS011;11261;52.456;10.850;2023-11-18T09:16:22;8.23;;;4.75;;
22191;SDS011;11261;52.456;10.850;2023-11-18T09:18:52;10.55;;;6.10;;
22191;SDS011;11261;52.456;10.850;2023-11-18T09:21:20;10.82;;;5.43;;
22191;SDS011;11261;52.456;10.850;2023-11-18T09:23:52;8.50;;;6.03;;
22191;SDS011;11261;52.456;10.850;2023-11-18T09:26:23;9.38;;;5.50;;
22191;SDS011;11261;52.456;10.850;2023-11-18T09:28:53;11.10;;;4.78;;
22191;SDS011;11261;52.456;10.850;2023-11-18T09:31:23;9.02;;;5.13;;
22191;SDS011;11261;52.456;10.850;2023-11-18T09:33:53;10.48;;;6.85;;
22191;SDS011;11261;52.456;10.850;2023-11-18T09:36:24;9.73;;;6.10;;
22191;SDS011;11261;52.456;10.850;2023-11-18T09:38:55;9.57;;;4.95;;
22191;SDS011;11261;52.456;10.850;2023-11-18T09:41:24;7.53;;;4.82;;
22191;SDS011;11261;52.456;10.850;2023-11-18T09:43:54;7.90;;;4.90;;
22191;SDS011;11261;52.456;10.850;2023-11-18T09:46:26;8.52;;;4.85;;
22191;SDS011;11261;52.456;10.850;2023-11-18T09:49:03;9.05;;;5.70;;
22191;SDS011;11261;52.456;10.850;2023-11-18T09:51:43;8.15;;;4.70;;
22191;SDS011;11261;52.456;10.850;2023-11-18T09:54:16;8.93;;;4.57;;
22191;SDS011;11261;52.456;10.850;2023-11-18T09:56:53;7.80;;;5.20;;
22191;SDS011;11261;52.456;10.850;2023-11-18T09:59:39;7.25;;;4.45;;
22191;SDS011;11261;52.456;10.850;2023-11-18T10:02:23;8.38;;;5.10;;
22191;SDS011;11261;52.456;10.850;2023-11-18T10:04:52;10.95;;;6.50;;
22191;SDS011;11261;52.456;10.850;2023-11-18T10:07:25;10.68;;;6.22;;
22191;SDS011;11261;52.456;10.850;2023-11-18T10:09:56;12.70;;;6.43;;
22191;SDS011;11261;52.456;10.850;2023-11-18T10:12:25;11.55;;;6.05;;
22191;SDS011;11261;52.456;10.850;2023-11-18T10:14:56;12.35;;;5.55;;
22191;SDS011;11261;52.456;10.850;2023-11-18T10:17:26;12.18;;;5.80;;
22191;SDS011;11261;52.456;10.850;2023-11-18T10:19:56;11.73;;;6.03;;
22191;SDS011;11261;52.456;10.850;2023-11-18T10:22:27;11.75;;;5.47;;
22191;SDS011;11261;52.456;10.850;2023-11-18T10:24:56;8.63;;;4.55;;
22191;SDS011;11261;52.456;10.850;2023-11-18T10:27:28;8.90;;;4.45;;
22191;SDS011;11261;52.456;10.850;2023-11-18T10:29:58;8.18;;;4.80;;
22191;SDS011;11261;52.456;10.850;2023-11-18T10:32:31;9.60;;;5.55;;
22191;SDS011;11261;52.456;10.850;2023-11-18T10:35:03;10.40;;;5.10;;
22191;SDS011;11261;52.456;10.850;2023-11-18T10:37:33;11.77;;;6.45;;
22191;SDS011;11261;52.456;10.850;2023-11-18T10:40:09;12.95;;;6.43;;
22191;SDS011;11261;52.456;10.850;2023-11-18T10:42:40;11.70;;;5.70;;
22191;SDS011;11261;52.456;10.850;2023-11-18T10:45:18;9.00;;;5.47;;
22191;SDS011;11261;52.456;10.850;2023-11-18T10:47:55;9.68;;;6.43;;
22191;SDS011;11261;52.456;10.850;2023-11-18T10:50:24;8.82;;;5.18;;
22191;SDS011;11261;52.456;10.850;2023-11-18T10:52:58;9.57;;;5.88;;
22191;SDS011;11261;52.456;10.850;2023-11-18T10:55:35;14.18;;;6.68;;
22191;SDS011;11261;52.456;10.850;2023-11-18T10:58:04;13.77;;;7.35;;
22191;SDS011;11261;52.456;10.850;2023-11-18T11:03:28;11.18;;;5.90;;
22191;SDS011;11261;52.456;10.850;2023-11-18T11:06:00;13.15;;;6.95;;
22191;SDS011;11261;52.456;10.850;2023-11-18T11:08:43;14.90;;;7.00;;
22191;SDS011;11261;52.456;10.850;2023-11-18T11:11:15;12.43;;;7.38;;
22191;SDS011;11261;52.456;10.850;2023-11-18T11:13:49;15.32;;;7.78;;
22191;SDS011;11261;52.456;10.850;2023-11-18T11:16:23;15.95;;;8.80;;
22191;SDS011;11261;52.456;10.850;2023-11-18T11:19:03;17.35;;;9.02;;
22191;SDS011;11261;52.456;10.850;2023-11-18T11:21:37;13.85;;;7.63;;
22191;SDS011;11261;52.456;10.850;2023-11-18T11:24:16;12.52;;;8.32;;
22191;SDS011;11261;52.456;10.850;2023-11-18T11:27:03;12.00;;;8.00;;
22191;SDS011;11261;52.456;10.850;2023-11-18T11:29:45;17.00;;;9.60;;
22191;SDS011;11261;52.456;10.850;2023-11-18T11:32:22;15.95;;;10.98;;
22191;SDS011;11261;52.456;10.850;2023-11-18T11:35:00;17.55;;;10.35;;
22191;SDS011;11261;52.456;10.850;2023-11-18T11:37:34;14.30;;;8.55;;
22191;SDS011;11261;52.456;10.850;2023-11-18T11:40:06;14.60;;;9.55;;
22191;SDS011;11261;52.456;10.850;2023-11-18T11:42:36;15.73;;;8.55;;
22191;SDS011;11261;52.456;10.850;2023-11-18T11:45:08;15.60;;;10.70;;
22191;SDS011;11261;52.456;10.850;2023-11-18T11:47:47;16.02;;;10.35;;
22191;SDS011;11261;52.456;10.850;2023-11-18T11:50:21;13.80;;;9.35;;
22191;SDS011;11261;52.456;10.850;2023-11-18T11:53:01;13.55;;;8.57;;
22191;SDS011;11261;52.456;10.850;2023-11-18T11:55:35;16.05;;;9.77;;
22191;SDS011;11261;52.456;10.850;2023-11-18T11:58:25;18.98;;;12.43;;
22191;SDS011;11261;52.456;10.850;2023-11-18T12:00:53;16.60;;;10.30;;
22191;SDS011;11261;52.456;10.850;2023-11-18T12:03:22;16.52;;;9.85;;
22191;SDS011;11261;52.456;10.850;2023-11-18T12:05:55;17.60;;;11.82;;
22191;SDS011;11261;52.456;10.850;2023-11-18T12:08:38;17.17;;;9.82;;
22191;SDS011;11261;52.456;10.850;2023-11-18T12:11:11;15.45;;;10.43;;
22191;SDS011;11261;52.456;10.850;2023-11-18T12:13:46;15.65;;;11.63;;
22191;SDS011;11261;52.456;10.850;2023-11-18T12:19:34;16.40;;;10.43;;
22191;SDS011;11261;52.456;10.850;2023-11-18T12:22:15;16.45;;;9.10;;
22191;SDS011;11261;52.456;10.850;2023-11-18T12:28:10;15.57;;;8.75;;
22191;SDS011;11261;52.456;10.850;2023-11-18T12:30:42;13.90;;;9.07;;
22191;SDS011;11261;52.456;10.850;2023-11-18T12:33:23;18.13;;;11.27;;
22191;SDS011;11261;52.456;10.850;2023-11-18T12:42:34;16.20;;;8.98;;
22191;SDS011;11261;52.456;10.850;2023-11-18T12:45:41;15.23;;;8.68;;
22191;SDS011;11261;52.456;10.850;2023-11-18T12:48:13;15.05;;;8.60;;
22191;SDS011;11261;52.456;10.850;2023-11-18T12:50:42;14.65;;;8.95;;
22191;SDS011;11261;52.456;10.850;2023-11-18T12:53:12;14.85;;;8.77;;
22191;SDS011;11261;52.456;10.850;2023-11-18T12:55:46;16.98;;;9.00;;
22191;SDS011;11261;52.456;10.850;2023-11-18T12:58:16;17.58;;;10.27;;
22191;SDS011;11261;52.456;10.850;2023-11-18T13:00:45;17.23;;;12.00;;
22191;SDS011;11261;52.456;10.850;2023-11-18T13:03:13;20.50;;;11.10;;
22191;SDS011;11261;52.456;10.850;2023-11-18T13:05:44;19.75;;;12.50;;
22191;SDS011;11261;52.456;10.850;2023-11-18T13:08:12;19.85;;;12.00;;
22191;SDS011;11261;52.456;10.850;2023-11-18T13:10:43;20.35;;;12.55;;
22191;SDS011;11261;52.456;10.850;2023-11-18T13:13:12;19.65;;;12.27;;
22191;SDS011;11261;52.456;10.850;2023-11-18T13:15:44;21.02;;;11.73;;
22191;SDS011;11261;52.456;10.850;2023-11-18T13:18:12;21.67;;;12.30;;
22191;SDS011;11261;52.456;10.850;2023-11-18T13:20:41;20.58;;;13.15;;
22191;SDS011;11261;52.456;10.850;2023-11-18T13:23:22;20.90;;;11.57;;
22191;SDS011;11261;52.456;10.850;2023-11-18T13:25:54;19.52;;;10.77;;
22191;SDS011;11261;52.456;10.850;2023-11-18T13:28:24;19.67;;;13.57;;
22191;SDS011;11261;52.456;10.850;2023-11-18T13:30:53;17.20;;;10.57;;
22191;SDS011;11261;52.456;10.850;2023-11-18T13:33:22;20.75;;;10.90;;
22191;SDS011;11261;52.456;10.850;2023-11-18T13:35:51;18.60;;;11.45;;
22191;SDS011;11261;52.456;10.850;2023-11-18T13:38:20;21.65;;;12.18;;
22191;SDS011;11261;52.456;10.850;2023-11-18T13:40:49;19.23;;;11.88;;
22191;SDS011;11261;52.456;10.850;2023-11-18T13:43:18;19.23;;;12.02;;
22191;SDS011;11261;52.456;10.850;2023-11-18T13:45:53;19.60;;;11.02;;
22191;SDS011;11261;52.456;10.850;2023-11-18T13:48:27;19.65;;;13.38;;
22191;SDS011;11261;52.456;10.850;2023-11-18T13:50:56;17.73;;;10.75;;
22191;SDS011;11261;52.456;10.850;2023-11-18T13:53:25;16.77;;;11.23;;
22191;SDS011;11261;52.456;10.850;2023-11-18T13:55:53;18.02;;;10.65;;
22191;SDS011;11261;52.456;10.850;2023-11-18T13:58:22;18.05;;;12.07;;
22191;SDS011;11261;52.456;10.850;2023-11-18T14:00:50;18.80;;;11.35;;
22191;SDS011;11261;52.456;10.850;2023-11-18T14:03:20;20.40;;;11.98;;
22191;SDS011;11261;52.456;10.850;2023-11-18T14:05:50;19.77;;;12.38;;
22191;SDS011;11261;52.456;10.850;2023-11-18T14:08:20;22.67;;;12.50;;
22191;SDS011;11261;52.456;10.850;2023-11-18T14:10:49;20.08;;;11.65;;
22191;SDS011;11261;52.456;10.850;2023-11-18T14:13:28;23.27;;;14.13;;
22191;SDS011;11261;52.456;10.850;2023-11-18T14:15:57;22.33;;;13.88;;
22191;SDS011;11261;52.456;10.850;2023-11-18T14:18:27;23.48;;;13.20;;
22191;SDS011;11261;52.456;10.850;2023-11-18T14:20:56;18.35;;;10.95;;
22191;SDS011;11261;52.456;10.850;2023-11-18T14:23:24;22.27;;;13.13;;
22191;SDS011;11261;52.456;10.850;2023-11-18T14:25:52;19.75;;;12.30;;
22191;SDS011;11261;52.456;10.850;2023-11-18T14:28:21;20.35;;;13.00;;
22191;SDS011;11261;52.456;10.850;2023-11-18T14:30:52;20.25;;;12.93;;
22191;SDS011;11261;52.456;10.850;2023-11-18T14:33:21;21.00;;;12.82;;
22191;SDS011;11261;52.456;10.850;2023-11-18T14:35:51;20.67;;;12.30;;
22191;SDS011;11261;52.456;10.850;2023-11-18T14:38:20;20.95;;;12.20;;
22191;SDS011;11261;52.456;10.850;2023-11-18T14:40:48;19.20;;;11.45;;
22191;SDS011;11261;52.456;10.850;2023-11-18T14:43:17;20.52;;;12.80;;
22191;SDS011;11261;52.456;10.850;2023-11-18T14:45:45;23.30;;;14.20;;
22191;SDS011;11261;52.456;10.850;2023-11-18T14:48:13;21.90;;;13.90;;
22191;SDS011;11261;52.456;10.850;2023-11-18T14:50:42;17.83;;;11.18;;
22191;SDS011;11261;52.456;10.850;2023-11-18T14:53:12;18.77;;;11.30;;
22191;SDS011;11261;52.456;10.850;2023-11-18T14:55:41;19.52;;;10.40;;
22191;SDS011;11261;52.456;10.850;2023-11-18T14:58:09;19.17;;;11.60;;
22191;SDS011;11261;52.456;10.850;2023-11-18T15:00:40;19.35;;;11.30;;
22191;SDS011;11261;52.456;10.850;2023-11-18T15:03:09;17.23;;;10.45;;